sensor_id;sensor_type;location;lat;lon;timestamp;pressure;altitude;pressure_sealevel;temperature;humidity
3812;BME280;1921;49.368;11.068;2022-08-03T00:00:47;97556.19;;;18.11;69.19
3812;BME280;1921;49.368;11.068;2022-08-03T00:03:12;97627.88;;;18.50;69.65
3812;BME280;1921;49.368;11.068;2022-08-03T00:05:38;97406.97;;;17.32;69.93
3812;BME280;1921;49.368;11.068;2022-08-03T00:08:04;97607.88;;;18.30;69.98
3812;BME280;1921;49.368;11.068;2022-08-03T00:10:30;97497.72;;;17.72;70.03
3812;BME280;1921;49.368;11.068;2022-08-03T00:12:56;97758.91;;;19.46;70.55
3812;BME280;1921;49.368;11.068;2022-08-03T00:15:21;97527.53;;;17.73;71.08
3812;BME280;1921;49.368;11.068;2022-08-03T00:17:47;97529.44;;;17.66;71.54
3812;BME280;1921;49.368;11.068;2022-08-03T00:20:13;97387.72;;;16.89;72.04
3812;BME280;1921;49.368;11.068;2022-08-03T00:22:39;97560.50;;;17.94;72.15
3812;BME280;1921;49.368;11.068;2022-08-03T00:25:05;97313.34;;;16.09;71.54
3812;BME280;1921;49.368;11.068;2022-08-03T00:27:31;97453.75;;;17.06;71.43
3812;BME280;1921;49.368;11.068;2022-08-03T00:29:56;97440.31;;;16.96;71.14
3812;BME280;1921;49.368;11.068;2022-08-03T00:32:22;97654.06;;;18.40;72.00
3812;BME280;1921;49.368;11.068;2022-08-03T00:34:48;97331.44;;;16.17;71.55
3812;BME280;1921;49.368;11.068;2022-08-03T00:37:14;97620.09;;;18.13;71.63
3812;BME280;1921;49.368;11.068;2022-08-03T00:39:39;97433.25;;;16.78;71.78
3812;BME280;1921;49.368;11.068;2022-08-03T00:42:07;97538.59;;;17.33;73.42
3812;BME280;1921;49.368;11.068;2022-08-03T00:44:42;97508.50;;;17.04;73.22
3812;BME280;1921;49.368;11.068;2022-08-03T00:47:08;97375.38;;;16.17;74.41
3812;BME280;1921;49.368;11.068;2022-08-03T00:49:36;97772.53;;;18.36;73.85
3812;BME280;1921;49.368;11.068;2022-08-03T00:52:02;97511.00;;;16.81;74.34
3812;BME280;1921;49.368;11.068;2022-08-03T00:54:29;97561.44;;;17.21;74.19
3812;BME280;1921;49.368;11.068;2022-08-03T00:56:55;97542.38;;;17.19;74.35
3812;BME280;1921;49.368;11.068;2022-08-03T00:59:21;97646.22;;;17.73;74.52
3812;BME280;1921;49.368;11.068;2022-08-03T01:01:47;97483.97;;;16.67;75.06
3812;BME280;1921;49.368;11.068;2022-08-03T01:04:13;97560.97;;;17.06;76.12
3812;BME280;1921;49.368;11.068;2022-08-03T01:06:50;97458.69;;;16.23;75.86
3812;BME280;1921;49.368;11.068;2022-08-03T01:10:24;97438.19;;;16.06;75.69
3812;BME280;1921;49.368;11.068;2022-08-03T01:12:42;97595.00;;;17.07;75.68
3812;BME280;1921;49.368;11.068;2022-08-03T01:18:51;97442.44;;;16.07;76.99
3812;BME280;1921;49.368;11.068;2022-08-03T01:21:28;97282.47;;;14.79;77.48
3812;BME280;1921;49.368;11.068;2022-08-03T01:24:43;97633.16;;;17.23;77.03
3812;BME280;1921;49.368;11.068;2022-08-03T01:27:20;97278.31;;;14.65;76.76
3812;BME280;1921;49.368;11.068;2022-08-03T01:30:08;97792.19;;;18.22;77.34
3812;BME280;1921;49.368;11.068;2022-08-03T01:32:53;97467.03;;;15.95;77.20
3812;BME280;1921;49.368;11.068;2022-08-03T01:35:43;97689.72;;;17.45;77.13
3812;BME280;1921;49.368;11.068;2022-08-03T01:38:22;97607.59;;;16.87;77.11
3812;BME280;1921;49.368;11.068;2022-08-03T01:40:50;97421.91;;;15.73;77.21
3812;BME280;1921;49.368;11.068;2022-08-03T01:43:21;97510.69;;;16.27;76.90
3812;BME280;1921;49.368;11.068;2022-08-03T01:45:50;97793.09;;;18.16;77.46
3812;BME280;1921;49.368;11.068;2022-08-03T01:48:17;97493.66;;;16.05;77.22
3812;BME280;1921;49.368;11.068;2022-08-03T01:50:44;97528.66;;;16.30;77.17
3812;BME280;1921;49.368;11.068;2022-08-03T01:53:14;97595.34;;;16.74;77.31
3812;BME280;1921;49.368;11.068;2022-08-03T01:55:45;97430.94;;;15.77;77.52
3812;BME280;1921;49.368;11.068;2022-08-03T01:58:14;97617.47;;;16.66;77.47
3812;BME280;1921;49.368;11.068;2022-08-03T02:00:42;97425.47;;;15.53;78.04
3812;BME280;1921;49.368;11.068;2022-08-03T02:03:08;97415.63;;;15.42;77.85
3812;BME280;1921;49.368;11.068;2022-08-03T02:05:38;97501.03;;;15.89;78.49
3812;BME280;1921;49.368;11.068;2022-08-03T02:08:07;97561.44;;;16.34;78.91
3812;BME280;1921;49.368;11.068;2022-08-03T02:10:35;97597.03;;;16.37;78.73
3812;BME280;1921;49.368;11.068;2022-08-03T02:13:04;97588.22;;;16.25;78.45
3812;BME280;1921;49.368;11.068;2022-08-03T02:15:33;97457.84;;;15.47;79.21
3812;BME280;1921;49.368;11.068;2022-08-03T02:18:01;97656.66;;;16.81;79.09
3812;BME280;1921;49.368;11.068;2022-08-03T02:20:30;97431.63;;;15.34;79.13
3812;BME280;1921;49.368;11.068;2022-08-03T02:22:57;97646.19;;;16.75;79.45
3812;BME280;1921;49.368;11.068;2022-08-03T02:25:23;97519.94;;;15.80;79.18
3812;BME280;1921;49.368;11.068;2022-08-03T02:27:57;97422.56;;;15.30;79.28
3812;BME280;1921;49.368;11.068;2022-08-03T02:30:32;97372.88;;;14.90;79.55
3812;BME280;1921;49.368;11.068;2022-08-03T02:33:01;97591.03;;;16.30;79.59
3812;BME280;1921;49.368;11.068;2022-08-03T02:35:28;97622.69;;;16.48;81.51
3812;BME280;1921;49.368;11.068;2022-08-03T02:38:02;97497.63;;;15.51;80.73
3812;BME280;1921;49.368;11.068;2022-08-03T02:40:30;97490.81;;;15.43;81.19
3812;BME280;1921;49.368;11.068;2022-08-03T02:43:01;97394.28;;;14.94;81.16
3812;BME280;1921;49.368;11.068;2022-08-03T02:45:28;97405.81;;;14.93;80.83
3812;BME280;1921;49.368;11.068;2022-08-03T02:47:59;97355.06;;;14.61;80.84
3812;BME280;1921;49.368;11.068;2022-08-03T02:50:28;97265.56;;;13.79;81.18
3812;BME280;1921;49.368;11.068;2022-08-03T02:52:56;97408.63;;;14.98;81.30
3812;BME280;1921;49.368;11.068;2022-08-03T02:55:24;97506.88;;;15.28;81.02
3812;BME280;1921;49.368;11.068;2022-08-03T02:57:51;97720.06;;;16.86;81.72
3812;BME280;1921;49.368;11.068;2022-08-03T03:00:19;97336.56;;;14.36;81.58
3812;BME280;1921;49.368;11.068;2022-08-03T03:02:45;97428.22;;;14.89;81.91
3812;BME280;1921;49.368;11.068;2022-08-03T03:05:12;97335.00;;;14.15;81.88
3812;BME280;1921;49.368;11.068;2022-08-03T03:07:39;97486.84;;;15.27;82.52
3812;BME280;1921;49.368;11.068;2022-08-03T03:10:07;97565.63;;;15.85;83.29
3812;BME280;1921;49.368;11.068;2022-08-03T03:12:36;97325.00;;;13.92;84.01
3812;BME280;1921;49.368;11.068;2022-08-03T03:15:04;97387.38;;;14.61;83.58
3812;BME280;1921;49.368;11.068;2022-08-03T03:17:32;97711.88;;;16.63;83.45
3812;BME280;1921;49.368;11.068;2022-08-03T03:19:59;97700.28;;;16.39;84.48
3812;BME280;1921;49.368;11.068;2022-08-03T03:22:26;97596.81;;;15.75;84.07
3812;BME280;1921;49.368;11.068;2022-08-03T03:24:52;97649.81;;;16.17;84.12
3812;BME280;1921;49.368;11.068;2022-08-03T03:27:20;97509.00;;;15.00;83.39
3812;BME280;1921;49.368;11.068;2022-08-03T03:29:46;97685.41;;;16.20;83.86
3812;BME280;1921;49.368;11.068;2022-08-03T03:32:12;97604.03;;;15.42;83.76
3812;BME280;1921;49.368;11.068;2022-08-03T03:34:38;97551.56;;;15.22;84.87
3812;BME280;1921;49.368;11.068;2022-08-03T03:37:05;97668.59;;;15.82;85.56
3812;BME280;1921;49.368;11.068;2022-08-03T03:39:30;97475.84;;;14.47;85.27
3812;BME280;1921;49.368;11.068;2022-08-03T03:41:57;97572.56;;;15.28;85.27
3812;BME280;1921;49.368;11.068;2022-08-03T03:44:27;97643.56;;;15.73;85.57
3812;BME280;1921;49.368;11.068;2022-08-03T03:46:57;97668.41;;;15.84;85.51
3812;BME280;1921;49.368;11.068;2022-08-03T03:49:23;97583.91;;;15.09;86.25
3812;BME280;1921;49.368;11.068;2022-08-03T03:51:52;97646.00;;;15.61;86.35
3812;BME280;1921;49.368;11.068;2022-08-03T03:54:19;97509.41;;;14.90;85.70
3812;BME280;1921;49.368;11.068;2022-08-03T03:56:45;97768.41;;;16.60;86.17
3812;BME280;1921;49.368;11.068;2022-08-03T03:59:11;97735.38;;;16.26;86.28
3812;BME280;1921;49.368;11.068;2022-08-03T04:01:38;97651.13;;;15.95;86.24
3812;BME280;1921;49.368;11.068;2022-08-03T04:04:04;97592.06;;;15.46;85.84
3812;BME280;1921;49.368;11.068;2022-08-03T04:06:49;97581.72;;;15.57;85.93
3812;BME280;1921;49.368;11.068;2022-08-03T04:09:38;97557.69;;;15.54;85.57
3812;BME280;1921;49.368;11.068;2022-08-03T04:12:25;97776.81;;;16.82;85.54
3812;BME280;1921;49.368;11.068;2022-08-03T04:14:55;97584.97;;;15.59;85.43
3812;BME280;1921;49.368;11.068;2022-08-03T04:17:26;97519.50;;;15.45;84.98
3812;BME280;1921;49.368;11.068;2022-08-03T04:19:54;97518.81;;;15.94;83.70
3812;BME280;1921;49.368;11.068;2022-08-03T04:22:25;97556.88;;;16.48;80.48
3812;BME280;1921;49.368;11.068;2022-08-03T04:25:03;97417.66;;;15.97;79.56
3812;BME280;1921;49.368;11.068;2022-08-03T04:27:37;97684.81;;;18.34;77.97
3812;BME280;1921;49.368;11.068;2022-08-03T04:30:06;97618.22;;;18.44;75.19
3812;BME280;1921;49.368;11.068;2022-08-03T04:32:35;97772.47;;;19.97;72.79
3812;BME280;1921;49.368;11.068;2022-08-03T04:35:02;97702.09;;;20.12;67.75
3812;BME280;1921;49.368;11.068;2022-08-03T04:37:48;97563.25;;;19.63;64.21
3812;BME280;1921;49.368;11.068;2022-08-03T04:40:26;97615.66;;;20.06;63.43
3812;BME280;1921;49.368;11.068;2022-08-03T04:42:55;97728.69;;;21.25;62.09
3812;BME280;1921;49.368;11.068;2022-08-03T04:45:24;97669.84;;;20.61;62.31
3812;BME280;1921;49.368;11.068;2022-08-03T04:47:50;97499.00;;;20.13;61.25
3812;BME280;1921;49.368;11.068;2022-08-03T04:50:17;97483.91;;;20.47;58.88
3812;BME280;1921;49.368;11.068;2022-08-03T04:52:43;97384.53;;;20.28;57.65
3812;BME280;1921;49.368;11.068;2022-08-03T04:55:09;97629.28;;;21.98;56.15
3812;BME280;1921;49.368;11.068;2022-08-03T04:57:35;97584.97;;;21.99;55.55
3812;BME280;1921;49.368;11.068;2022-08-03T05:00:02;97492.03;;;21.23;54.54
3812;BME280;1921;49.368;11.068;2022-08-03T05:02:29;97561.09;;;21.77;53.96
3812;BME280;1921;49.368;11.068;2022-08-03T05:04:55;97755.91;;;23.55;53.73
3812;BME280;1921;49.368;11.068;2022-08-03T05:07:21;97754.41;;;24.27;52.24
3812;BME280;1921;49.368;11.068;2022-08-03T05:09:47;97567.88;;;23.38;50.58
3812;BME280;1921;49.368;11.068;2022-08-03T05:12:13;97771.34;;;24.83;50.00
3812;BME280;1921;49.368;11.068;2022-08-03T05:14:39;97610.75;;;24.25;48.38
3812;BME280;1921;49.368;11.068;2022-08-03T05:17:05;97592.66;;;24.73;46.85
3812;BME280;1921;49.368;11.068;2022-08-03T05:19:31;97622.41;;;25.41;45.63
3812;BME280;1921;49.368;11.068;2022-08-03T05:21:57;97736.25;;;26.62;45.17
3812;BME280;1921;49.368;11.068;2022-08-03T05:24:23;97760.00;;;26.73;43.54
3812;BME280;1921;49.368;11.068;2022-08-03T05:26:49;97776.00;;;26.29;45.38
3812;BME280;1921;49.368;11.068;2022-08-03T05:29:14;97618.22;;;25.10;45.02
3812;BME280;1921;49.368;11.068;2022-08-03T05:31:40;97496.13;;;24.15;45.79
3812;BME280;1921;49.368;11.068;2022-08-03T05:34:06;97647.00;;;25.03;46.27
3812;BME280;1921;49.368;11.068;2022-08-03T05:36:32;97708.13;;;26.15;45.17
3812;BME280;1921;49.368;11.068;2022-08-03T05:38:57;97770.41;;;26.20;46.14
3812;BME280;1921;49.368;11.068;2022-08-03T05:41:23;97732.19;;;26.20;44.56
3812;BME280;1921;49.368;11.068;2022-08-03T05:43:51;97727.84;;;26.34;44.12
3812;BME280;1921;49.368;11.068;2022-08-03T05:46:17;97585.69;;;25.67;44.06
3812;BME280;1921;49.368;11.068;2022-08-03T05:48:42;97729.78;;;26.68;43.73
3812;BME280;1921;49.368;11.068;2022-08-03T05:51:09;97775.63;;;27.34;42.55
3812;BME280;1921;49.368;11.068;2022-08-03T05:53:42;97633.34;;;26.10;42.95
3812;BME280;1921;49.368;11.068;2022-08-03T05:56:08;97689.94;;;26.22;44.57
3812;BME280;1921;49.368;11.068;2022-08-03T05:58:34;97664.22;;;26.26;43.83
3812;BME280;1921;49.368;11.068;2022-08-03T06:01:00;97729.44;;;26.79;43.51
3812;BME280;1921;49.368;11.068;2022-08-03T06:03:26;97552.09;;;26.06;43.09
3812;BME280;1921;49.368;11.068;2022-08-03T06:05:53;97792.13;;;27.76;42.81
3812;BME280;1921;49.368;11.068;2022-08-03T06:08:21;97634.25;;;27.26;41.28
3812;BME280;1921;49.368;11.068;2022-08-03T06:10:47;97673.50;;;27.41;42.57
3812;BME280;1921;49.368;11.068;2022-08-03T06:13:13;97546.38;;;27.04;41.53
3812;BME280;1921;49.368;11.068;2022-08-03T06:15:39;97784.69;;;29.01;41.20
3812;BME280;1921;49.368;11.068;2022-08-03T06:18:04;97703.00;;;29.02;39.39
3812;BME280;1921;49.368;11.068;2022-08-03T06:20:32;97788.88;;;30.27;37.94
3812;BME280;1921;49.368;11.068;2022-08-03T06:22:58;97718.66;;;29.60;38.48
3812;BME280;1921;49.368;11.068;2022-08-03T06:25:25;97770.03;;;29.26;39.16
3812;BME280;1921;49.368;11.068;2022-08-03T06:27:51;97737.50;;;27.96;42.08
3812;BME280;1921;49.368;11.068;2022-08-03T06:30:17;97687.28;;;27.29;42.98
3812;BME280;1921;49.368;11.068;2022-08-03T06:32:44;97563.03;;;26.43;42.39
3812;BME280;1921;49.368;11.068;2022-08-03T06:35:09;97562.66;;;25.82;44.60
3812;BME280;1921;49.368;11.068;2022-08-03T06:37:47;97550.69;;;27.05;41.70
3812;BME280;1921;49.368;11.068;2022-08-03T06:40:17;97643.72;;;28.28;40.15
3812;BME280;1921;49.368;11.068;2022-08-03T06:42:44;97444.03;;;27.50;39.06
3812;BME280;1921;49.368;11.068;2022-08-03T06:45:11;97660.63;;;29.13;38.35
3812;BME280;1921;49.368;11.068;2022-08-03T06:47:38;97719.06;;;29.95;37.18
3812;BME280;1921;49.368;11.068;2022-08-03T06:50:07;97607.09;;;28.18;39.11
3812;BME280;1921;49.368;11.068;2022-08-03T06:52:34;97464.25;;;27.80;38.09
3812;BME280;1921;49.368;11.068;2022-08-03T06:54:59;97488.59;;;27.84;38.18
3812;BME280;1921;49.368;11.068;2022-08-03T06:57:25;97667.75;;;27.77;40.76
3812;BME280;1921;49.368;11.068;2022-08-03T06:59:51;97359.13;;;24.41;44.12
3812;BME280;1921;49.368;11.068;2022-08-03T07:02:17;97445.16;;;26.06;42.15
3812;BME280;1921;49.368;11.068;2022-08-03T07:04:47;97704.13;;;28.82;40.19
3812;BME280;1921;49.368;11.068;2022-08-03T07:07:13;97683.47;;;29.43;38.74
3812;BME280;1921;49.368;11.068;2022-08-03T07:09:39;97439.34;;;27.80;38.31
3812;BME280;1921;49.368;11.068;2022-08-03T07:12:05;97609.41;;;29.37;37.74
3812;BME280;1921;49.368;11.068;2022-08-03T07:14:31;97617.09;;;28.51;38.72
3812;BME280;1921;49.368;11.068;2022-08-03T07:16:56;97668.66;;;28.66;38.60
3812;BME280;1921;49.368;11.068;2022-08-03T07:19:22;97545.22;;;28.15;38.53
3812;BME280;1921;49.368;11.068;2022-08-03T07:21:48;97535.84;;;28.12;38.73
3812;BME280;1921;49.368;11.068;2022-08-03T07:24:14;97581.47;;;27.94;40.23
3812;BME280;1921;49.368;11.068;2022-08-03T07:26:39;97681.16;;;29.22;38.66
3812;BME280;1921;49.368;11.068;2022-08-03T07:29:06;97669.94;;;29.89;36.88
3812;BME280;1921;49.368;11.068;2022-08-03T07:31:31;97606.72;;;28.25;38.58
3812;BME280;1921;49.368;11.068;2022-08-03T07:33:57;97543.75;;;26.75;41.57
3812;BME280;1921;49.368;11.068;2022-08-03T07:36:23;97581.16;;;27.33;41.66
3812;BME280;1921;49.368;11.068;2022-08-03T07:38:49;97644.38;;;28.58;39.10
3812;BME280;1921;49.368;11.068;2022-08-03T07:41:15;97637.88;;;29.24;37.71
3812;BME280;1921;49.368;11.068;2022-08-03T07:43:41;97641.69;;;28.20;39.89
3812;BME280;1921;49.368;11.068;2022-08-03T07:46:07;97644.03;;;28.46;39.07
3812;BME280;1921;49.368;11.068;2022-08-03T07:48:33;97529.22;;;27.53;39.68
3812;BME280;1921;49.368;11.068;2022-08-03T07:50:59;97785.88;;;29.74;39.39
3812;BME280;1921;49.368;11.068;2022-08-03T07:53:25;97531.81;;;29.08;37.32
3812;BME280;1921;49.368;11.068;2022-08-03T07:55:51;97676.84;;;30.90;35.44
3812;BME280;1921;49.368;11.068;2022-08-03T07:58:16;97671.19;;;31.62;33.63
3812;BME280;1921;49.368;11.068;2022-08-03T08:00:43;97664.66;;;30.70;34.69
3812;BME280;1921;49.368;11.068;2022-08-03T08:03:09;97626.41;;;30.82;35.26
3812;BME280;1921;49.368;11.068;2022-08-03T08:05:36;97596.94;;;31.74;33.09
3812;BME280;1921;49.368;11.068;2022-08-03T08:08:02;97708.75;;;34.05;31.00
3812;BME280;1921;49.368;11.068;2022-08-03T08:10:29;97463.91;;;33.10;30.17
3812;BME280;1921;49.368;11.068;2022-08-03T08:12:55;97476.91;;;34.34;28.04
3812;BME280;1921;49.368;11.068;2022-08-03T08:15:21;97738.31;;;36.33;27.86
3812;BME280;1921;49.368;11.068;2022-08-03T08:17:52;97756.91;;;35.70;28.27
3812;BME280;1921;49.368;11.068;2022-08-03T08:20:25;97763.97;;;34.84;29.47
3812;BME280;1921;49.368;11.068;2022-08-03T08:22:51;97712.03;;;32.87;32.21
3812;BME280;1921;49.368;11.068;2022-08-03T08:25:17;97726.16;;;33.95;30.19
3812;BME280;1921;49.368;11.068;2022-08-03T08:27:46;97725.03;;;35.67;28.47
3812;BME280;1921;49.368;11.068;2022-08-03T08:30:13;97727.56;;;36.49;27.22
3812;BME280;1921;49.368;11.068;2022-08-03T08:32:39;97722.19;;;36.12;27.46
3812;BME280;1921;49.368;11.068;2022-08-03T08:35:06;97754.06;;;36.92;26.89
3812;BME280;1921;49.368;11.068;2022-08-03T08:37:33;97746.34;;;37.70;25.87
3812;BME280;1921;49.368;11.068;2022-08-03T08:39:59;97730.09;;;35.56;28.65
3812;BME280;1921;49.368;11.068;2022-08-03T08:42:25;97780.16;;;34.21;31.03
3812;BME280;1921;49.368;11.068;2022-08-03T08:44:50;97746.66;;;35.30;28.83
3812;BME280;1921;49.368;11.068;2022-08-03T08:47:24;97727.31;;;34.15;30.59
3812;BME280;1921;49.368;11.068;2022-08-03T08:49:53;97722.38;;;36.32;27.31
3812;BME280;1921;49.368;11.068;2022-08-03T08:52:28;97746.63;;;37.49;25.61
3812;BME280;1921;49.368;11.068;2022-08-03T08:55:00;97730.66;;;38.85;24.07
3812;BME280;1921;49.368;11.068;2022-08-03T08:57:34;97693.53;;;39.68;23.13
3812;BME280;1921;49.368;11.068;2022-08-03T09:00:12;97631.50;;;40.25;22.11
3812;BME280;1921;49.368;11.068;2022-08-03T09:02:39;97751.59;;;41.83;21.28
3812;BME280;1921;49.368;11.068;2022-08-03T09:05:17;97740.28;;;42.54;20.25
3812;BME280;1921;49.368;11.068;2022-08-03T09:07:45;97715.34;;;37.75;24.84
3812;BME280;1921;49.368;11.068;2022-08-03T09:10:14;97712.25;;;34.89;27.97
3812;BME280;1921;49.368;11.068;2022-08-03T09:12:47;97716.31;;;33.53;30.00
3812;BME280;1921;49.368;11.068;2022-08-03T09:15:31;97690.28;;;34.07;29.11
3812;BME280;1921;49.368;11.068;2022-08-03T09:17:59;97723.66;;;36.62;25.30
3812;BME280;1921;49.368;11.068;2022-08-03T09:20:29;97672.88;;;38.05;23.34
3812;BME280;1921;49.368;11.068;2022-08-03T09:23:04;97749.69;;;37.79;24.35
3812;BME280;1921;49.368;11.068;2022-08-03T09:25:41;97662.63;;;38.34;23.38
3812;BME280;1921;49.368;11.068;2022-08-03T09:28:08;97752.31;;;39.16;22.87
3812;BME280;1921;49.368;11.068;2022-08-03T09:30:36;97740.22;;;39.82;22.20
3812;BME280;1921;49.368;11.068;2022-08-03T09:33:09;97713.78;;;39.64;21.58
3812;BME280;1921;49.368;11.068;2022-08-03T09:35:46;97597.09;;;39.38;21.51
3812;BME280;1921;49.368;11.068;2022-08-03T09:38:21;97742.88;;;41.29;20.39
3812;BME280;1921;49.368;11.068;2022-08-03T09:40:52;97694.63;;;41.58;19.47
3812;BME280;1921;49.368;11.068;2022-08-03T09:43:19;97730.34;;;42.24;19.52
3812;BME280;1921;49.368;11.068;2022-08-03T09:45:45;97633.50;;;42.06;18.88
3812;BME280;1921;49.368;11.068;2022-08-03T09:48:24;97743.88;;;42.65;18.04
3812;BME280;1921;49.368;11.068;2022-08-03T09:50:56;97708.44;;;42.31;18.40
3812;BME280;1921;49.368;11.068;2022-08-03T09:53:23;97725.50;;;42.83;18.38
3812;BME280;1921;49.368;11.068;2022-08-03T09:56:00;97727.91;;;42.12;17.77
3812;BME280;1921;49.368;11.068;2022-08-03T09:58:29;97728.72;;;41.24;17.67
3812;BME280;1921;49.368;11.068;2022-08-03T10:00:59;97728.66;;;41.13;17.95
3812;BME280;1921;49.368;11.068;2022-08-03T10:03:28;97695.59;;;37.93;21.63
3812;BME280;1921;49.368;11.068;2022-08-03T10:05:54;97707.03;;;35.87;23.88
3812;BME280;1921;49.368;11.068;2022-08-03T10:08:21;97681.72;;;38.18;21.67
3812;BME280;1921;49.368;11.068;2022-08-03T10:11:31;97733.31;;;40.19;19.98
3812;BME280;1921;49.368;11.068;2022-08-03T10:14:07;97675.91;;;40.15;19.85
3812;BME280;1921;49.368;11.068;2022-08-03T10:16:35;97710.88;;;41.33;19.10
3812;BME280;1921;49.368;11.068;2022-08-03T10:19:07;97503.31;;;40.54;18.46
3812;BME280;1921;49.368;11.068;2022-08-03T10:21:38;97601.91;;;41.09;18.42
3812;BME280;1921;49.368;11.068;2022-08-03T10:24:07;97531.28;;;40.77;18.67
3812;BME280;1921;49.368;11.068;2022-08-03T10:26:38;97612.50;;;41.65;17.52
3812;BME280;1921;49.368;11.068;2022-08-03T10:29:09;97512.56;;;41.34;17.26
3812;BME280;1921;49.368;11.068;2022-08-03T10:31:43;97649.06;;;38.99;19.60
3812;BME280;1921;49.368;11.068;2022-08-03T10:34:23;97601.78;;;40.54;18.84
3812;BME280;1921;49.368;11.068;2022-08-03T10:36:52;97531.59;;;39.98;18.93
3812;BME280;1921;49.368;11.068;2022-08-03T10:39:24;97618.44;;;40.79;18.47
3812;BME280;1921;49.368;11.068;2022-08-03T10:41:52;97538.41;;;40.11;18.80
3812;BME280;1921;49.368;11.068;2022-08-03T10:44:23;97568.47;;;40.45;18.65
3812;BME280;1921;49.368;11.068;2022-08-03T10:46:50;97469.22;;;40.03;17.89
3812;BME280;1921;49.368;11.068;2022-08-03T10:49:19;97514.25;;;40.50;18.37
3812;BME280;1921;49.368;11.068;2022-08-03T10:51:47;97611.19;;;40.94;18.54
3812;BME280;1921;49.368;11.068;2022-08-03T10:54:44;97539.91;;;40.05;18.08
3812;BME280;1921;49.368;11.068;2022-08-03T11:00:08;97653.03;;;41.38;17.92
3812;BME280;1921;49.368;11.068;2022-08-03T11:05:46;97551.75;;;37.29;21.02
3812;BME280;1921;49.368;11.068;2022-08-03T11:08:32;97458.44;;;36.46;21.79
3812;BME280;1921;49.368;11.068;2022-08-03T11:19:07;97390.97;;;37.76;20.50
3812;BME280;1921;49.368;11.068;2022-08-03T11:29:57;97488.34;;;37.63;20.89
3812;BME280;1921;49.368;11.068;2022-08-03T11:32:50;97377.75;;;36.97;20.84
3812;BME280;1921;49.368;11.068;2022-08-03T11:35:33;97500.34;;;37.78;21.04
3812;BME280;1921;49.368;11.068;2022-08-03T11:38:09;97532.03;;;38.06;20.98
3812;BME280;1921;49.368;11.068;2022-08-03T11:40:48;97408.13;;;37.77;20.89
3812;BME280;1921;49.368;11.068;2022-08-03T11:46:12;97518.00;;;38.92;19.78
3812;BME280;1921;49.368;11.068;2022-08-03T11:48:48;97383.59;;;38.42;19.11
3812;BME280;1921;49.368;11.068;2022-08-03T11:51:29;97503.59;;;39.71;18.91
3812;BME280;1921;49.368;11.068;2022-08-03T11:54:00;97465.63;;;39.96;18.90
3812;BME280;1921;49.368;11.068;2022-08-03T11:56:41;97421.84;;;40.29;18.23
3812;BME280;1921;49.368;11.068;2022-08-03T11:59:07;97476.84;;;41.13;17.89
3812;BME280;1921;49.368;11.068;2022-08-03T12:01:33;97483.88;;;41.14;16.93
3812;BME280;1921;49.368;11.068;2022-08-03T12:04:03;97485.47;;;41.19;17.09
3812;BME280;1921;49.368;11.068;2022-08-03T12:06:29;97484.00;;;41.35;17.68
3812;BME280;1921;49.368;11.068;2022-08-03T12:08:55;97425.84;;;40.39;17.53
3812;BME280;1921;49.368;11.068;2022-08-03T12:11:21;97389.47;;;40.31;16.78
3812;BME280;1921;49.368;11.068;2022-08-03T12:13:49;97473.75;;;41.22;17.47
3812;BME280;1921;49.368;11.068;2022-08-03T12:16:23;97501.28;;;40.44;17.53
3812;BME280;1921;49.368;11.068;2022-08-03T12:19:05;97402.41;;;39.30;18.02
3812;BME280;1921;49.368;11.068;2022-08-03T12:21:31;97379.84;;;40.04;17.68
3812;BME280;1921;49.368;11.068;2022-08-03T12:23:59;97392.94;;;40.76;17.64
3812;BME280;1921;49.368;11.068;2022-08-03T12:26:27;97446.84;;;40.76;17.19
3812;BME280;1921;49.368;11.068;2022-08-03T12:28:54;97356.75;;;40.46;16.96
3812;BME280;1921;49.368;11.068;2022-08-03T12:31:19;97430.31;;;41.13;16.81
3812;BME280;1921;49.368;11.068;2022-08-03T12:33:59;97372.59;;;38.88;18.35
3812;BME280;1921;49.368;11.068;2022-08-03T12:36:28;97483.38;;;36.20;21.65
3812;BME280;1921;49.368;11.068;2022-08-03T12:38:58;97331.53;;;33.89;23.29
3812;BME280;1921;49.368;11.068;2022-08-03T12:41:30;97432.63;;;34.99;22.58
3812;BME280;1921;49.368;11.068;2022-08-03T12:43:58;97490.84;;;37.17;20.49
3812;BME280;1921;49.368;11.068;2022-08-03T12:46:38;97401.16;;;37.98;18.55
3812;BME280;1921;49.368;11.068;2022-08-03T12:49:09;97369.41;;;38.82;18.46
3812;BME280;1921;49.368;11.068;2022-08-03T12:54:20;97530.66;;;40.98;16.87
3812;BME280;1921;49.368;11.068;2022-08-03T12:57:07;97529.38;;;41.36;17.57
3812;BME280;1921;49.368;11.068;2022-08-03T12:59:40;97332.38;;;40.19;17.10
3812;BME280;1921;49.368;11.068;2022-08-03T13:02:20;97382.38;;;40.78;16.48
3812;BME280;1921;49.368;11.068;2022-08-03T13:04:49;97417.56;;;41.53;16.64
3812;BME280;1921;49.368;11.068;2022-08-03T13:07:16;97482.00;;;42.41;16.05
3812;BME280;1921;49.368;11.068;2022-08-03T13:09:49;97429.88;;;42.12;15.84
3812;BME280;1921;49.368;11.068;2022-08-03T13:12:17;97370.81;;;39.63;17.12
3812;BME280;1921;49.368;11.068;2022-08-03T13:14:52;97349.97;;;38.08;18.93
3812;BME280;1921;49.368;11.068;2022-08-03T13:17:18;97371.97;;;38.98;18.10
3812;BME280;1921;49.368;11.068;2022-08-03T13:19:45;97422.25;;;39.91;17.50
3812;BME280;1921;49.368;11.068;2022-08-03T13:22:14;97443.97;;;41.13;16.84
3812;BME280;1921;49.368;11.068;2022-08-03T13:24:41;97471.19;;;41.61;16.41
3812;BME280;1921;49.368;11.068;2022-08-03T13:27:08;97496.19;;;38.92;18.64
3812;BME280;1921;49.368;11.068;2022-08-03T13:29:34;97221.06;;;35.24;20.46
3812;BME280;1921;49.368;11.068;2022-08-03T13:32:03;97211.47;;;36.05;19.77
3812;BME280;1921;49.368;11.068;2022-08-03T13:34:29;97350.53;;;36.14;19.99
3812;BME280;1921;49.368;11.068;2022-08-03T13:36:54;97449.88;;;35.72;21.24
3812;BME280;1921;49.368;11.068;2022-08-03T13:39:20;97459.00;;;35.27;21.67
3812;BME280;1921;49.368;11.068;2022-08-03T13:41:46;97269.75;;;34.40;21.67
3812;BME280;1921;49.368;11.068;2022-08-03T13:44:13;97260.38;;;34.90;21.01
3812;BME280;1921;49.368;11.068;2022-08-03T13:46:39;97394.19;;;36.37;20.37
3812;BME280;1921;49.368;11.068;2022-08-03T13:49:05;97225.91;;;36.45;18.61
3812;BME280;1921;49.368;11.068;2022-08-03T13:51:32;97426.13;;;38.46;17.63
3812;BME280;1921;49.368;11.068;2022-08-03T13:53:58;97430.75;;;37.23;19.24